sensor_id;sensor_type;location;lat;lon;timestamp;P1;durP1;ratioP1;P2;durP2;ratioP2
43702;SDS011;29304;56.146;40.396;2022-08-03T00:00:06;5.15;;;2.63;;
43702;SDS011;29304;56.146;40.396;2022-08-03T00:00:17;5.68;;;2.58;;
43702;SDS011;29304;56.146;40.396;2022-08-03T00:00:28;5.47;;;2.63;;
43702;SDS011;29304;56.146;40.396;2022-08-03T00:00:38;5.60;;;2.70;;
43702;SDS011;29304;56.146;40.396;2022-08-03T00:00:49;6.93;;;2.83;;
43702;SDS011;29304;56.146;40.396;2022-08-03T00:00:59;6.20;;;2.70;;
43702;SDS011;29304;56.146;40.396;2022-08-03T00:01:10;6.33;;;2.70;;
43702;SDS011;29304;56.146;40.396;2022-08-03T00:01:20;4.00;;;2.72;;
43702;SDS011;29304;56.146;40.396;2022-08-03T00:01:31;4.37;;;2.80;;
43702;SDS011;29304;56.146;40.396;2022-08-03T00:01:41;3.90;;;2.50;;
43702;SDS011;29304;56.146;40.396;2022-08-03T00:01:52;3.72;;;2.25;;
43702;SDS011;29304;56.146;40.396;2022-08-03T00:02:03;4.88;;;2.38;;
43702;SDS011;29304;56.146;40.396;2022-08-03T00:02:13;5.07;;;2.43;;
43702;SDS011;29304;56.146;40.396;2022-08-03T00:02:24;4.93;;;2.50;;
43702;SDS011;29304;56.146;40.396;2022-08-03T00:02:34;4.77;;;2.50;;
43702;SDS011;29304;56.146;40.396;2022-08-03T00:02:45;5.45;;;2.65;;
43702;SDS011;29304;56.146;40.396;2022-08-03T00:02:55;7.70;;;2.63;;
43702;SDS011;29304;56.146;40.396;2022-08-03T00:03:05;7.27;;;2.40;;
43702;SDS011;29304;56.146;40.396;2022-08-03T00:03:16;8.27;;;2.42;;
43702;SDS011;29304;56.146;40.396;2022-08-03T00:03:26;6.10;;;2.43;;
43702;SDS011;29304;56.146;40.396;2022-08-03T00:03:37;6.82;;;2.67;;
43702;SDS011;29304;56.146;40.396;2022-08-03T00:03:48;7.40;;;2.63;;
43702;SDS011;29304;56.146;40.396;2022-08-03T00:03:58;6.50;;;2.60;;
43702;SDS011;29304;56.146;40.396;2022-08-03T00:04:09;5.30;;;2.40;;
43702;SDS011;29304;56.146;40.396;2022-08-03T00:04:20;4.07;;;2.40;;
43702;SDS011;29304;56.146;40.396;2022-08-03T00:04:30;4.40;;;2.40;;
43702;SDS011;29304;56.146;40.396;2022-08-03T00:04:41;4.30;;;2.43;;
43702;SDS011;29304;56.146;40.396;2022-08-03T00:04:51;3.60;;;2.40;;
43702;SDS011;29304;56.146;40.396;2022-08-03T00:05:03;4.13;;;2.25;;
43702;SDS011;29304;56.146;40.396;2022-08-03T00:05:14;4.00;;;2.17;;
43702;SDS011;29304;56.146;40.396;2022-08-03T00:05:24;4.00;;;2.30;;
43702;SDS011;29304;56.146;40.396;2022-08-03T00:05:35;3.67;;;2.20;;
43702;SDS011;29304;56.146;40.396;2022-08-03T00:05:46;4.80;;;2.30;;
43702;SDS011;29304;56.146;40.396;2022-08-03T00:05:56;4.78;;;2.42;;
43702;SDS011;29304;56.146;40.396;2022-08-03T00:06:07;5.40;;;2.53;;
43702;SDS011;29304;56.146;40.396;2022-08-03T00:06:17;6.88;;;2.67;;
43702;SDS011;29304;56.146;40.396;2022-08-03T00:06:28;9.57;;;2.60;;
43702;SDS011;29304;56.146;40.396;2022-08-03T00:06:38;9.05;;;2.70;;
43702;SDS011;29304;56.146;40.396;2022-08-03T00:06:49;7.93;;;2.70;;
43702;SDS011;29304;56.146;40.396;2022-08-03T00:06:59;4.90;;;2.67;;
43702;SDS011;29304;56.146;40.396;2022-08-03T00:07:10;4.20;;;2.50;;
43702;SDS011;29304;56.146;40.396;2022-08-03T00:07:20;3.50;;;2.42;;
43702;SDS011;29304;56.146;40.396;2022-08-03T00:07:31;4.23;;;2.53;;
43702;SDS011;29304;56.146;40.396;2022-08-03T00:07:41;5.00;;;2.88;;
43702;SDS011;29304;56.146;40.396;2022-08-03T00:07:51;5.87;;;2.87;;
43702;SDS011;29304;56.146;40.396;2022-08-03T00:08:02;5.93;;;2.90;;
43702;SDS011;29304;56.146;40.396;2022-08-03T00:08:12;6.27;;;2.70;;
43702;SDS011;29304;56.146;40.396;2022-08-03T00:08:23;5.82;;;2.90;;
43702;SDS011;29304;56.146;40.396;2022-08-03T00:08:33;6.50;;;3.00;;
43702;SDS011;29304;56.146;40.396;2022-08-03T00:08:44;6.07;;;3.05;;
43702;SDS011;29304;56.146;40.396;2022-08-03T00:08:54;6.60;;;2.90;;
43702;SDS011;29304;56.146;40.396;2022-08-03T00:09:05;5.90;;;2.70;;
43702;SDS011;29304;56.146;40.396;2022-08-03T00:09:16;5.93;;;2.60;;
43702;SDS011;29304;56.146;40.396;2022-08-03T00:09:26;6.60;;;2.67;;
43702;SDS011;29304;56.146;40.396;2022-08-03T00:09:37;7.45;;;2.60;;
43702;SDS011;29304;56.146;40.396;2022-08-03T00:09:47;7.13;;;2.73;;
43702;SDS011;29304;56.146;40.396;2022-08-03T00:09:58;8.27;;;2.85;;
43702;SDS011;29304;56.146;40.396;2022-08-03T00:10:08;8.03;;;2.90;;
43702;SDS011;29304;56.146;40.396;2022-08-03T00:10:19;9.73;;;2.97;;
43702;SDS011;29304;56.146;40.396;2022-08-03T00:10:29;9.52;;;2.85;;
43702;SDS011;29304;56.146;40.396;2022-08-03T00:10:40;8.77;;;2.73;;
43702;SDS011;29304;56.146;40.396;2022-08-03T00:10:50;8.32;;;2.60;;
43702;SDS011;29304;56.146;40.396;2022-08-03T00:11:02;7.43;;;2.70;;
43702;SDS011;29304;56.146;40.396;2022-08-03T00:11:13;7.63;;;2.80;;
43702;SDS011;29304;56.146;40.396;2022-08-03T00:11:23;5.78;;;2.75;;
43702;SDS011;29304;56.146;40.396;2022-08-03T00:11:34;6.20;;;2.83;;
43702;SDS011;29304;56.146;40.396;2022-08-03T00:11:45;6.82;;;3.00;;
43702;SDS011;29304;56.146;40.396;2022-08-03T00:11:56;7.23;;;2.73;;
43702;SDS011;29304;56.146;40.396;2022-08-03T00:12:06;7.03;;;2.88;;
43702;SDS011;29304;56.146;40.396;2022-08-03T00:12:17;7.45;;;3.00;;
43702;SDS011;29304;56.146;40.396;2022-08-03T00:12:28;6.47;;;3.20;;
43702;SDS011;29304;56.146;40.396;2022-08-03T00:12:38;6.27;;;3.10;;
43702;SDS011;29304;56.146;40.396;2022-08-03T00:12:48;4.65;;;2.95;;
43702;SDS011;29304;56.146;40.396;2022-08-03T00:12:59;4.65;;;2.97;;
43702;SDS011;29304;56.146;40.396;2022-08-03T00:13:10;3.27;;;2.60;;
43702;SDS011;29304;56.146;40.396;2022-08-03T00:13:22;4.90;;;2.72;;
43702;SDS011;29304;56.146;40.396;2022-08-03T00:13:32;5.20;;;2.67;;
43702;SDS011;29304;56.146;40.396;2022-08-03T00:13:43;5.80;;;2.70;;
43702;SDS011;29304;56.146;40.396;2022-08-03T00:13:53;6.28;;;2.80;;
43702;SDS011;29304;56.146;40.396;2022-08-03T00:14:04;6.57;;;2.90;;
43702;SDS011;29304;56.146;40.396;2022-08-03T00:14:15;5.93;;;3.00;;
43702;SDS011;29304;56.146;40.396;2022-08-03T00:14:26;5.28;;;3.00;;
43702;SDS011;29304;56.146;40.396;2022-08-03T00:14:36;4.17;;;2.77;;
43702;SDS011;29304;56.146;40.396;2022-08-03T00:14:47;3.80;;;2.70;;
43702;SDS011;29304;56.146;40.396;2022-08-03T00:14:57;4.57;;;2.63;;
43702;SDS011;29304;56.146;40.396;2022-08-03T00:15:08;5.90;;;2.80;;
43702;SDS011;29304;56.146;40.396;2022-08-03T00:15:19;6.25;;;2.90;;
43702;SDS011;29304;56.146;40.396;2022-08-03T00:15:29;5.20;;;2.80;;
43702;SDS011;29304;56.146;40.396;2022-08-03T00:15:40;4.47;;;2.90;;
43702;SDS011;29304;56.146;40.396;2022-08-03T00:15:51;5.50;;;2.80;;
43702;SDS011;29304;56.146;40.396;2022-08-03T00:16:02;6.03;;;2.92;;
43702;SDS011;29304;56.146;40.396;2022-08-03T00:16:13;5.82;;;2.90;;
43702;SDS011;29304;56.146;40.396;2022-08-03T00:16:23;4.80;;;3.00;;
43702;SDS011;29304;56.146;40.396;2022-08-03T00:16:35;3.92;;;2.72;;
43702;SDS011;29304;56.146;40.396;2022-08-03T00:16:46;5.05;;;2.70;;
43702;SDS011;29304;56.146;40.396;2022-08-03T00:16:56;5.13;;;2.77;;
43702;SDS011;29304;56.146;40.396;2022-08-03T00:17:07;5.50;;;2.90;;
43702;SDS011;29304;56.146;40.396;2022-08-03T00:17:17;5.47;;;2.80;;
43702;SDS011;29304;56.146;40.396;2022-08-03T00:17:28;7.82;;;2.90;;
43702;SDS011;29304;56.146;40.396;2022-08-03T00:17:38;7.30;;;2.90;;
43702;SDS011;29304;56.146;40.396;2022-08-03T00:17:48;7.53;;;3.08;;
43702;SDS011;29304;56.146;40.396;2022-08-03T00:17:59;7.27;;;3.10;;
43702;SDS011;29304;56.146;40.396;2022-08-03T00:18:09;7.40;;;3.10;;
43702;SDS011;29304;56.146;40.396;2022-08-03T00:18:20;5.73;;;2.80;;
43702;SDS011;29304;56.146;40.396;2022-08-03T00:18:30;5.28;;;2.60;;
43702;SDS011;29304;56.146;40.396;2022-08-03T00:18:41;5.27;;;2.63;;
43702;SDS011;29304;56.146;40.396;2022-08-03T00:18:51;6.35;;;2.90;;
43702;SDS011;29304;56.146;40.396;2022-08-03T00:19:02;4.87;;;2.97;;
43702;SDS011;29304;56.146;40.396;2022-08-03T00:19:13;5.38;;;3.10;;
43702;SDS011;29304;56.146;40.396;2022-08-03T00:19:23;5.10;;;3.05;;
43702;SDS011;29304;56.146;40.396;2022-08-03T00:19:34;4.97;;;3.23;;
43702;SDS011;29304;56.146;40.396;2022-08-03T00:19:44;4.53;;;3.10;;
43702;SDS011;29304;56.146;40.396;2022-08-03T00:19:55;5.20;;;3.35;;
43702;SDS011;29304;56.146;40.396;2022-08-03T00:20:06;6.00;;;3.30;;
43702;SDS011;29304;56.146;40.396;2022-08-03T00:20:17;5.95;;;3.30;;
43702;SDS011;29304;56.146;40.396;2022-08-03T00:20:27;6.53;;;3.10;;
43702;SDS011;29304;56.146;40.396;2022-08-03T00:20:38;6.37;;;3.10;;
43702;SDS011;29304;56.146;40.396;2022-08-03T00:20:48;6.63;;;3.20;;
43702;SDS011;29304;56.146;40.396;2022-08-03T00:20:59;6.53;;;3.20;;
43702;SDS011;29304;56.146;40.396;2022-08-03T00:21:09;8.88;;;3.15;;
43702;SDS011;29304;56.146;40.396;2022-08-03T00:21:20;9.25;;;2.97;;
43702;SDS011;29304;56.146;40.396;2022-08-03T00:21:30;9.63;;;3.10;;
43702;SDS011;29304;56.146;40.396;2022-08-03T00:21:41;8.63;;;3.20;;
43702;SDS011;29304;56.146;40.396;2022-08-03T00:21:51;8.13;;;3.10;;
43702;SDS011;29304;56.146;40.396;2022-08-03T00:22:02;5.70;;;2.92;;
43702;SDS011;29304;56.146;40.396;2022-08-03T00:22:12;4.13;;;2.83;;
43702;SDS011;29304;56.146;40.396;2022-08-03T00:22:23;3.70;;;2.72;;
43702;SDS011;29304;56.146;40.396;2022-08-03T00:22:33;5.37;;;3.03;;
43702;SDS011;29304;56.146;40.396;2022-08-03T00:22:44;5.93;;;3.10;;
43702;SDS011;29304;56.146;40.396;2022-08-03T00:22:55;6.70;;;3.20;;
43702;SDS011;29304;56.146;40.396;2022-08-03T00:23:05;6.47;;;3.13;;
43702;SDS011;29304;56.146;40.396;2022-08-03T00:23:16;6.22;;;3.08;;
43702;SDS011;29304;56.146;40.396;2022-08-03T00:23:26;6.43;;;3.00;;
43702;SDS011;29304;56.146;40.396;2022-08-03T00:23:37;7.53;;;3.00;;
43702;SDS011;29304;56.146;40.396;2022-08-03T00:23:48;8.77;;;3.08;;
43702;SDS011;29304;56.146;40.396;2022-08-03T00:23:58;7.77;;;3.10;;
43702;SDS011;29304;56.146;40.396;2022-08-03T00:24:08;6.40;;;2.95;;
43702;SDS011;29304;56.146;40.396;2022-08-03T00:24:19;5.97;;;2.93;;
43702;SDS011;29304;56.146;40.396;2022-08-03T00:24:30;5.30;;;2.90;;
43702;SDS011;29304;56.146;40.396;2022-08-03T00:24:40;5.47;;;3.00;;
43702;SDS011;29304;56.146;40.396;2022-08-03T00:24:51;5.47;;;3.00;;
43702;SDS011;29304;56.146;40.396;2022-08-03T00:25:01;7.63;;;3.10;;
43702;SDS011;29304;56.146;40.396;2022-08-03T00:25:11;7.88;;;3.00;;
43702;SDS011;29304;56.146;40.396;2022-08-03T00:25:22;7.73;;;2.87;;
43702;SDS011;29304;56.146;40.396;2022-08-03T00:25:33;8.15;;;2.83;;
43702;SDS011;29304;56.146;40.396;2022-08-03T00:25:44;7.90;;;2.85;;
43702;SDS011;29304;56.146;40.396;2022-08-03T00:25:55;7.43;;;3.00;;
43702;SDS011;29304;56.146;40.396;2022-08-03T00:26:06;6.55;;;3.00;;
43702;SDS011;29304;56.146;40.396;2022-08-03T00:26:16;5.87;;;3.10;;
43702;SDS011;29304;56.146;40.396;2022-08-03T00:26:27;5.38;;;2.90;;
43702;SDS011;29304;56.146;40.396;2022-08-03T00:26:37;5.70;;;3.00;;
43702;SDS011;29304;56.146;40.396;2022-08-03T00:26:48;6.60;;;2.85;;
43702;SDS011;29304;56.146;40.396;2022-08-03T00:26:58;7.17;;;3.10;;
43702;SDS011;29304;56.146;40.396;2022-08-03T00:27:09;7.40;;;3.17;;
43702;SDS011;29304;56.146;40.396;2022-08-03T00:27:19;7.13;;;3.30;;
43702;SDS011;29304;56.146;40.396;2022-08-03T00:27:30;6.60;;;3.20;;
43702;SDS011;29304;56.146;40.396;2022-08-03T00:27:40;5.65;;;3.08;;
43702;SDS011;29304;56.146;40.396;2022-08-03T00:27:50;5.50;;;3.07;;
43702;SDS011;29304;56.146;40.396;2022-08-03T00:28:02;4.95;;;2.88;;
43702;SDS011;29304;56.146;40.396;2022-08-03T00:28:13;5.88;;;3.00;;
43702;SDS011;29304;56.146;40.396;2022-08-03T00:28:23;6.65;;;3.20;;
43702;SDS011;29304;56.146;40.396;2022-08-03T00:28:34;8.27;;;3.60;;
43702;SDS011;29304;56.146;40.396;2022-08-03T00:28:44;8.52;;;3.60;;
43702;SDS011;29304;56.146;40.396;2022-08-03T00:28:54;8.03;;;3.50;;
43702;SDS011;29304;56.146;40.396;2022-08-03T00:29:05;8.88;;;3.47;;
43702;SDS011;29304;56.146;40.396;2022-08-03T00:29:15;8.30;;;3.50;;
43702;SDS011;29304;56.146;40.396;2022-08-03T00:29:26;7.72;;;3.35;;
43702;SDS011;29304;56.146;40.396;2022-08-03T00:29:37;5.40;;;3.08;;
43702;SDS011;29304;56.146;40.396;2022-08-03T00:29:47;5.17;;;2.90;;
43702;SDS011;29304;56.146;40.396;2022-08-03T00:29:58;5.68;;;3.00;;
43702;SDS011;29304;56.146;40.396;2022-08-03T00:30:08;6.97;;;3.43;;
43702;SDS011;29304;56.146;40.396;2022-08-03T00:30:19;7.65;;;3.58;;
43702;SDS011;29304;56.146;40.396;2022-08-03T00:30:30;6.63;;;3.53;;
43702;SDS011;29304;56.146;40.396;2022-08-03T00:30:41;5.35;;;3.33;;
43702;SDS011;29304;56.146;40.396;2022-08-03T00:30:51;5.57;;;3.20;;
43702;SDS011;29304;56.146;40.396;2022-08-03T00:31:02;7.20;;;3.25;;
43702;SDS011;29304;56.146;40.396;2022-08-03T00:31:12;7.37;;;3.33;;
43702;SDS011;29304;56.146;40.396;2022-08-03T00:31:23;6.97;;;3.30;;
43702;SDS011;29304;56.146;40.396;2022-08-03T00:31:33;4.95;;;3.17;;
43702;SDS011;29304;56.146;40.396;2022-08-03T00:31:44;4.57;;;2.90;;
43702;SDS011;29304;56.146;40.396;2022-08-03T00:31:54;4.83;;;3.00;;
43702;SDS011;29304;56.146;40.396;2022-08-03T00:32:05;6.03;;;3.22;;
43702;SDS011;29304;56.146;40.396;2022-08-03T00:32:15;6.20;;;3.47;;
43702;SDS011;29304;56.146;40.396;2022-08-03T00:32:25;6.00;;;3.50;;
43702;SDS011;29304;56.146;40.396;2022-08-03T00:32:36;5.23;;;3.33;;
43702;SDS011;29304;56.146;40.396;2022-08-03T00:32:46;4.85;;;3.10;;
43702;SDS011;29304;56.146;40.396;2022-08-03T00:32:57;4.60;;;3.10;;
43702;SDS011;29304;56.146;40.396;2022-08-03T00:33:08;4.65;;;2.95;;
43702;SDS011;29304;56.146;40.396;2022-08-03T00:33:19;5.90;;;3.28;;
43702;SDS011;29304;56.146;40.396;2022-08-03T00:33:30;6.70;;;3.20;;
43702;SDS011;29304;56.146;40.396;2022-08-03T00:33:41;6.88;;;3.30;;
43702;SDS011;29304;56.146;40.396;2022-08-03T00:33:52;6.70;;;3.10;;
43702;SDS011;29304;56.146;40.396;2022-08-03T00:34:02;5.70;;;2.92;;
43702;SDS011;29304;56.146;40.396;2022-08-03T00:34:13;5.22;;;3.20;;
43702;SDS011;29304;56.146;40.396;2022-08-03T00:34:23;6.03;;;3.20;;
43702;SDS011;29304;56.146;40.396;2022-08-03T00:34:34;7.88;;;3.30;;
43702;SDS011;29304;56.146;40.396;2022-08-03T00:34:44;8.63;;;3.30;;
43702;SDS011;29304;56.146;40.396;2022-08-03T00:34:55;8.02;;;3.55;;
43702;SDS011;29304;56.146;40.396;2022-08-03T00:35:05;7.47;;;3.60;;
43702;SDS011;29304;56.146;40.396;2022-08-03T00:35:16;7.70;;;3.45;;
43702;SDS011;29304;56.146;40.396;2022-08-03T00:35:27;8.50;;;3.40;;
43702;SDS011;29304;56.146;40.396;2022-08-03T00:35:38;7.28;;;3.20;;
43702;SDS011;29304;56.146;40.396;2022-08-03T00:35:48;7.80;;;3.23;;
43702;SDS011;29304;56.146;40.396;2022-08-03T00:36:00;7.38;;;3.10;;
43702;SDS011;29304;56.146;40.396;2022-08-03T00:36:10;7.17;;;3.10;;
43702;SDS011;29304;56.146;40.396;2022-08-03T00:36:21;6.18;;;3.13;;
43702;SDS011;29304;56.146;40.396;2022-08-03T00:36:31;7.27;;;3.20;;
43702;SDS011;29304;56.146;40.396;2022-08-03T00:36:42;7.32;;;3.38;;
43702;SDS011;29304;56.146;40.396;2022-08-03T00:36:52;6.70;;;3.30;;
43702;SDS011;29304;56.146;40.396;2022-08-03T00:37:03;4.85;;;3.15;;
43702;SDS011;29304;56.146;40.396;2022-08-03T00:37:13;5.70;;;3.10;;
43702;SDS011;29304;56.146;40.396;2022-08-03T00:37:24;6.00;;;3.22;;
43702;SDS011;29304;56.146;40.396;2022-08-03T00:37:34;7.37;;;3.37;;
43702;SDS011;29304;56.146;40.396;2022-08-03T00:37:45;7.60;;;3.30;;
43702;SDS011;29304;56.146;40.396;2022-08-03T00:37:56;7.03;;;3.28;;
43702;SDS011;29304;56.146;40.396;2022-08-03T00:38:06;6.88;;;3.03;;
43702;SDS011;29304;56.146;40.396;2022-08-03T00:38:17;6.67;;;3.17;;
43702;SDS011;29304;56.146;40.396;2022-08-03T00:38:28;7.45;;;3.38;;
43702;SDS011;29304;56.146;40.396;2022-08-03T00:38:39;7.37;;;3.33;;
43702;SDS011;29304;56.146;40.396;2022-08-03T00:38:49;7.57;;;3.13;;
43702;SDS011;29304;56.146;40.396;2022-08-03T00:39:00;5.30;;;2.90;;
43702;SDS011;29304;56.146;40.396;2022-08-03T00:39:10;4.38;;;2.92;;
43702;SDS011;29304;56.146;40.396;2022-08-03T00:39:20;4.17;;;2.90;;
43702;SDS011;29304;56.146;40.396;2022-08-03T00:39:31;6.03;;;3.17;;
43702;SDS011;29304;56.146;40.396;2022-08-03T00:39:41;6.55;;;3.10;;
43702;SDS011;29304;56.146;40.396;2022-08-03T00:39:54;7.15;;;3.45;;
43702;SDS011;29304;56.146;40.396;2022-08-03T00:40:05;6.87;;;3.57;;
43702;SDS011;29304;56.146;40.396;2022-08-03T00:40:16;7.55;;;3.42;;
43702;SDS011;29304;56.146;40.396;2022-08-03T00:40:28;7.93;;;3.35;;
43702;SDS011;29304;56.146;40.396;2022-08-03T00:40:38;8.55;;;3.38;;
43702;SDS011;29304;56.146;40.396;2022-08-03T00:40:49;7.93;;;3.30;;
43702;SDS011;29304;56.146;40.396;2022-08-03T00:41:00;8.20;;;3.40;;
43702;SDS011;29304;56.146;40.396;2022-08-03T00:41:10;7.35;;;3.47;;
43702;SDS011;29304;56.146;40.396;2022-08-03T00:41:21;6.80;;;3.43;;
43702;SDS011;29304;56.146;40.396;2022-08-03T00:41:31;6.43;;;3.45;;
43702;SDS011;29304;56.146;40.396;2022-08-03T00:41:42;7.60;;;3.27;;
43702;SDS011;29304;56.146;40.396;2022-08-03T00:41:52;7.40;;;3.35;;
43702;SDS011;29304;56.146;40.396;2022-08-03T00:42:03;7.30;;;3.50;;
43702;SDS011;29304;56.146;40.396;2022-08-03T00:42:14;5.60;;;3.58;;
43702;SDS011;29304;56.146;40.396;2022-08-03T00:42:25;5.57;;;3.47;;
43702;SDS011;29304;56.146;40.396;2022-08-03T00:42:44;5.70;;;3.50;;
43702;SDS011;29304;56.146;40.396;2022-08-03T00:43:00;6.57;;;3.58;;
43702;SDS011;29304;56.146;40.396;2022-08-03T00:43:13;6.95;;;3.40;;
43702;SDS011;29304;56.146;40.396;2022-08-03T00:43:24;6.72;;;3.38;;
43702;SDS011;29304;56.146;40.396;2022-08-03T00:43:36;6.93;;;3.45;;
43702;SDS011;29304;56.146;40.396;2022-08-03T00:43:47;6.43;;;3.67;;
43702;SDS011;29304;56.146;40.396;2022-08-03T00:43:57;6.47;;;3.67;;
43702;SDS011;29304;56.146;40.396;2022-08-03T00:44:08;7.13;;;3.75;;
43702;SDS011;29304;56.146;40.396;2022-08-03T00:44:18;6.67;;;3.50;;
43702;SDS011;29304;56.146;40.396;2022-08-03T00:44:28;6.40;;;3.55;;
43702;SDS011;29304;56.146;40.396;2022-08-03T00:44:40;5.00;;;3.30;;
43702;SDS011;29304;56.146;40.396;2022-08-03T00:44:51;6.07;;;3.30;;
43702;SDS011;29304;56.146;40.396;2022-08-03T00:45:02;7.78;;;3.50;;
43702;SDS011;29304;56.146;40.396;2022-08-03T00:45:12;8.02;;;3.55;;
43702;SDS011;29304;56.146;40.396;2022-08-03T00:45:24;7.13;;;3.30;;
43702;SDS011;29304;56.146;40.396;2022-08-03T00:45:45;6.97;;;3.45;;
43702;SDS011;29304;56.146;40.396;2022-08-03T00:45:55;7.27;;;3.40;;
43702;SDS011;29304;56.146;40.396;2022-08-03T00:46:06;7.18;;;3.47;;
43702;SDS011;29304;56.146;40.396;2022-08-03T00:46:16;7.13;;;3.50;;
43702;SDS011;29304;56.146;40.396;2022-08-03T00:46:27;7.73;;;3.80;;
43702;SDS011;29304;56.146;40.396;2022-08-03T00:46:37;7.30;;;3.70;;
43702;SDS011;29304;56.146;40.396;2022-08-03T00:46:47;8.00;;;3.70;;
43702;SDS011;29304;56.146;40.396;2022-08-03T00:46:58;7.97;;;3.80;;
43702;SDS011;29304;56.146;40.396;2022-08-03T00:47:08;9.85;;;3.90;;
43702;SDS011;29304;56.146;40.396;2022-08-03T00:47:20;9.98;;;4.03;;
43702;SDS011;29304;56.146;40.396;2022-08-03T00:47:30;9.65;;;4.18;;
43702;SDS011;29304;56.146;40.396;2022-08-03T00:47:40;8.53;;;4.27;;
43702;SDS011;29304;56.146;40.396;2022-08-03T00:47:51;8.70;;;4.03;;
43702;SDS011;29304;56.146;40.396;2022-08-03T00:48:03;8.48;;;3.72;;
43702;SDS011;29304;56.146;40.396;2022-08-03T00:48:15;6.45;;;3.58;;
43702;SDS011;29304;56.146;40.396;2022-08-03T00:48:25;5.90;;;3.60;;
43702;SDS011;29304;56.146;40.396;2022-08-03T00:48:35;5.43;;;3.47;;
43702;SDS011;29304;56.146;40.396;2022-08-03T00:48:46;5.90;;;3.60;;
43702;SDS011;29304;56.146;40.396;2022-08-03T00:48:58;6.75;;;3.50;;
43702;SDS011;29304;56.146;40.396;2022-08-03T00:49:08;8.55;;;3.63;;
43702;SDS011;29304;56.146;40.396;2022-08-03T00:49:18;8.30;;;3.70;;
43702;SDS011;29304;56.146;40.396;2022-08-03T00:49:29;8.57;;;3.92;;
43702;SDS011;29304;56.146;40.396;2022-08-03T00:49:39;7.80;;;4.00;;
43702;SDS011;29304;56.146;40.396;2022-08-03T00:49:50;9.15;;;4.18;;
43702;SDS011;29304;56.146;40.396;2022-08-03T00:50:02;8.37;;;4.13;;
43702;SDS011;29304;56.146;40.396;2022-08-03T00:50:13;7.38;;;4.05;;
43702;SDS011;29304;56.146;40.396;2022-08-03T00:50:25;5.68;;;3.92;;
43702;SDS011;29304;56.146;40.396;2022-08-03T00:50:39;6.07;;;3.65;;
43702;SDS011;29304;56.146;40.396;2022-08-03T00:50:51;5.78;;;3.38;;
43702;SDS011;29304;56.146;40.396;2022-08-03T00:51:02;6.57;;;3.40;;
43702;SDS011;29304;56.146;40.396;2022-08-03T00:51:13;6.90;;;3.33;;
43702;SDS011;29304;56.146;40.396;2022-08-03T00:51:24;6.68;;;3.60;;
43702;SDS011;29304;56.146;40.396;2022-08-03T00:51:34;6.07;;;3.53;;
43702;SDS011;29304;56.146;40.396;2022-08-03T00:51:45;6.07;;;3.80;;
43702;SDS011;29304;56.146;40.396;2022-08-03T00:51:56;7.18;;;3.90;;
43702;SDS011;29304;56.146;40.396;2022-08-03T00:52:09;7.13;;;3.80;;
43702;SDS011;29304;56.146;40.396;2022-08-03T00:52:20;9.27;;;3.95;;
43702;SDS011;29304;56.146;40.396;2022-08-03T00:52:31;11.90;;;4.30;;
43702;SDS011;29304;56.146;40.396;2022-08-03T00:52:41;11.97;;;4.10;;
43702;SDS011;29304;56.146;40.396;2022-08-03T00:52:52;9.10;;;3.65;;
43702;SDS011;29304;56.146;40.396;2022-08-03T00:53:04;7.70;;;3.53;;
43702;SDS011;29304;56.146;40.396;2022-08-03T00:53:16;6.93;;;3.60;;
43702;SDS011;29304;56.146;40.396;2022-08-03T00:53:27;5.67;;;3.53;;
43702;SDS011;29304;56.146;40.396;2022-08-03T00:53:37;6.03;;;3.55;;
43702;SDS011;29304;56.146;40.396;2022-08-03T00:53:48;6.97;;;3.58;;
43702;SDS011;29304;56.146;40.396;2022-08-03T00:53:59;6.28;;;3.40;;
43702;SDS011;29304;56.146;40.396;2022-08-03T00:54:10;4.93;;;3.33;;
43702;SDS011;29304;56.146;40.396;2022-08-03T00:54:20;5.00;;;3.40;;
43702;SDS011;29304;56.146;40.396;2022-08-03T00:54:32;5.55;;;3.45;;
43702;SDS011;29304;56.146;40.396;2022-08-03T00:54:43;5.30;;;3.40;;
43702;SDS011;29304;56.146;40.396;2022-08-03T00:54:53;5.53;;;3.40;;
43702;SDS011;29304;56.146;40.396;2022-08-03T00:55:04;5.28;;;3.25;;
43702;SDS011;29304;56.146;40.396;2022-08-03T00:55:15;5.90;;;3.30;;
43702;SDS011;29304;56.146;40.396;2022-08-03T00:55:26;4.97;;;3.17;;
43702;SDS011;29304;56.146;40.396;2022-08-03T00:55:37;7.25;;;3.20;;
43702;SDS011;29304;56.146;40.396;2022-08-03T00:55:47;7.03;;;3.13;;
43702;SDS011;29304;56.146;40.396;2022-08-03T00:55:58;7.47;;;3.20;;
43702;SDS011;29304;56.146;40.396;2022-08-03T00:56:11;6.73;;;3.37;;
43702;SDS011;29304;56.146;40.396;2022-08-03T00:56:23;7.20;;;3.65;;
43702;SDS011;29304;56.146;40.396;2022-08-03T00:56:34;6.32;;;3.60;;
43702;SDS011;29304;56.146;40.396;2022-08-03T00:56:45;5.63;;;3.50;;
43702;SDS011;29304;56.146;40.396;2022-08-03T00:56:55;6.50;;;3.45;;
43702;SDS011;29304;56.146;40.396;2022-08-03T00:57:06;6.70;;;3.33;;
43702;SDS011;29304;56.146;40.396;2022-08-03T00:57:17;7.00;;;3.30;;
43702;SDS011;29304;56.146;40.396;2022-08-03T00:57:31;7.55;;;3.45;;
43702;SDS011;29304;56.146;40.396;2022-08-03T00:57:42;7.57;;;3.60;;
43702;SDS011;29304;56.146;40.396;2022-08-03T00:57:53;8.70;;;3.70;;
43702;SDS011;29304;56.146;40.396;2022-08-03T00:58:04;8.25;;;3.53;;
43702;SDS011;29304;56.146;40.396;2022-08-03T00:58:15;7.60;;;3.63;;
43702;SDS011;29304;56.146;40.396;2022-08-03T00:58:26;6.37;;;3.83;;
43702;SDS011;29304;56.146;40.396;2022-08-03T00:58:36;8.25;;;4.20;;
43702;SDS011;29304;56.146;40.396;2022-08-03T00:58:47;7.47;;;4.13;;
43702;SDS011;29304;56.146;40.396;2022-08-03T00:58:58;8.02;;;4.03;;
43702;SDS011;29304;56.146;40.396;2022-08-03T00:59:09;7.60;;;3.90;;
43702;SDS011;29304;56.146;40.396;2022-08-03T00:59:20;7.07;;;3.92;;
43702;SDS011;29304;56.146;40.396;2022-08-03T00:59:30;6.50;;;3.72;;
43702;SDS011;29304;56.146;40.396;2022-08-03T00:59:41;6.22;;;3.65;;
43702;SDS011;29304;56.146;40.396;2022-08-03T00:59:52;6.17;;;3.57;;
43702;SDS011;29304;56.146;40.396;2022-08-03T01:00:04;7.03;;;3.80;;
43702;SDS011;29304;56.146;40.396;2022-08-03T01:00:17;7.65;;;3.78;;
43702;SDS011;29304;56.146;40.396;2022-08-03T01:00:29;7.32;;;3.63;;
43702;SDS011;29304;56.146;40.396;2022-08-03T01:00:40;7.13;;;4.07;;
43702;SDS011;29304;56.146;40.396;2022-08-03T01:00:50;7.63;;;4.07;;
43702;SDS011;29304;56.146;40.396;2022-08-03T01:01:01;7.43;;;4.03;;
43702;SDS011;29304;56.146;40.396;2022-08-03T01:01:13;5.38;;;3.72;;
43702;SDS011;29304;56.146;40.396;2022-08-03T01:01:24;5.95;;;3.63;;
43702;SDS011;29304;56.146;40.396;2022-08-03T01:01:34;6.40;;;3.70;;
43702;SDS011;29304;56.146;40.396;2022-08-03T01:01:45;7.28;;;3.85;;
43702;SDS011;29304;56.146;40.396;2022-08-03T01:01:56;6.83;;;4.00;;
43702;SDS011;29304;56.146;40.396;2022-08-03T01:02:06;6.65;;;3.75;;
43702;SDS011;29304;56.146;40.396;2022-08-03T01:02:17;8.38;;;3.63;;
43702;SDS011;29304;56.146;40.396;2022-08-03T01:02:28;9.57;;;3.50;;
43702;SDS011;29304;56.146;40.396;2022-08-03T01:02:38;9.75;;;3.50;;
43702;SDS011;29304;56.146;40.396;2022-08-03T01:02:50;8.23;;;3.35;;
43702;SDS011;29304;56.146;40.396;2022-08-03T01:03:01;7.55;;;3.67;;
43702;SDS011;29304;56.146;40.396;2022-08-03T01:03:12;8.20;;;3.95;;
43702;SDS011;29304;56.146;40.396;2022-08-03T01:03:22;8.47;;;4.60;;
43702;SDS011;29304;56.146;40.396;2022-08-03T01:03:33;8.60;;;4.60;;
43702;SDS011;29304;56.146;40.396;2022-08-03T01:03:43;9.25;;;4.40;;
43702;SDS011;29304;56.146;40.396;2022-08-03T01:03:54;10.80;;;4.20;;
43702;SDS011;29304;56.146;40.396;2022-08-03T01:04:04;9.47;;;4.10;;